Time;durP1;ratioP1;P1;durP2;ratioP2;P2;SDS_P1;SDS_P2;PMS_P1;PMS_P2;Temp;Humidity;BMP_temperature;BMP_pressure;BME280_temperature;BME280_humidity;BME280_pressure;Samples;Min_cycle;Max_cycle;Signal;HPM_P1;HPM_P2
2022/02/05 00:00:31;;;;;;;41.53;30.80;;;;;;;10.06;39.77;101862.31;143726;660;46006;-71
2022/02/05 00:03:14;;;;;;;42.67;29.87;;;;;;;10.08;39.84;101857.63;143725;619;47004;-71
2022/02/05 00:05:55;;;;;;;39.35;30.35;;;;;;;10.08;39.77;101862.16;143722;661;47010;-71
2022/02/05 00:08:46;;;;;;;37.53;28.83;;;;;;;10.10;39.86;101857.47;143723;583;47004;-72
2022/02/05 00:42:31;;;;;;;48.22;33.90;;;;;;;9.77;40.17;101836.81;143724;611;46017;-71
2022/02/05 00:44:57;;;;;;;49.63;32.33;;;;;;;9.79;40.13;101829.44;143725;616;46006;-71
2022/02/05 00:47:26;;;;;;;45.50;29.65;;;;;;;9.79;40.50;101832.12;143727;610;47004;-71
2022/02/05 00:49:58;;;;;;;40.60;27.50;;;;;;;9.77;40.17;101827.94;143725;643;46026;-71
2022/02/05 00:52:25;;;;;;;38.13;26.65;;;;;;;9.79;40.70;101824.06;143723;630;47002;-71
2022/02/05 00:55:01;;;;;;;38.17;25.30;;;;;;;9.81;40.88;101818.53;143723;605;46006;-70
2022/02/05 01:00:18;;;;;;;39.10;24.90;;;;;;;9.78;40.72;101819.72;143726;598;47002;-70
2022/02/05 01:02:45;;;;;;;32.10;25.50;;;;;;;9.77;40.84;101822.56;143724;610;47002;-71
2022/02/05 01:05:12;;;;;;;31.83;25.15;;;;;;;9.77;40.89;101825.25;143723;616;47004;-71
2022/02/05 01:07:39;;;;;;;38.95;26.48;;;;;;;9.77;41.18;101815.34;143724;584;47000;-71
2022/02/05 01:10:07;;;;;;;38.20;28.85;;;;;;;9.79;41.30;101815.19;143722;628;47010;-71
2022/02/05 01:12:35;;;;;;;36.70;29.17;;;;;;;9.73;41.72;101815.84;143720;674;47003;-71
2022/02/05 01:15:03;;;;;;;44.22;30.00;;;;;;;9.69;41.70;101816.19;143725;589;46006;-70
2022/02/05 01:17:37;;;;;;;37.20;26.87;;;;;;;9.71;41.24;101811.50;143722;592;47002;-71
2022/02/05 01:20:36;;;;;;;41.13;28.33;;;;;;;9.79;41.52;101812.50;143723;567;47010;-71
2022/02/05 01:23:00;;;;;;;34.15;26.83;;;;;;;9.76;41.67;101799.44;143723;614;47004;-71
2022/02/05 01:25:32;;;;;;;31.48;23.05;;;;;;;9.76;41.50;101805.63;143726;622;46006;-71
2022/02/05 01:28:06;;;;;;;29.20;22.48;;;;;;;9.73;41.42;101791.72;143724;577;47002;-71
2022/02/05 01:30:37;;;;;;;34.92;22.92;;;;;;;9.71;41.19;101791.84;143724;594;46010;-71
2022/02/05 01:52:41;;;;;;;32.22;21.52;;;;;;;9.54;41.80;101778.44;143724;594;46925;-71
2022/02/05 02:06:31;;;;;;;30.00;21.23;;;;;;;9.63;41.90;101779.28;143721;589;47004;-71
2022/02/05 02:11:50;;;;;;;30.35;21.10;;;;;;;9.65;41.88;101776.44;143727;586;46023;-71
2022/02/05 02:14:42;;;;;;;28.77;21.12;;;;;;;9.66;41.93;101776.25;143722;594;47013;-71
2022/02/05 02:20:27;;;;;;;27.62;21.80;;;;;;;9.54;42.19;101781.09;143723;578;47004;-71
2022/02/05 02:23:08;;;;;;;27.85;21.77;;;;;;;9.49;42.17;101777.25;143724;583;47004;-71
2022/02/05 02:28:39;;;;;;;40.10;26.87;;;;;;;9.32;42.82;101769.19;143724;641;46010;-71
2022/02/05 02:31:10;;;;;;;34.40;24.58;;;;;;;9.27;42.92;101759.94;143725;585;46008;-71
2022/02/05 02:33:42;;;;;;;35.42;23.40;;;;;;;9.28;42.90;101761.63;143726;679;47002;-71
2022/02/05 02:36:16;;;;;;;35.58;24.63;;;;;;;9.28;42.87;101758.94;143723;613;47013;-71
2022/02/05 02:38:48;;;;;;;31.67;21.15;;;;;;;9.27;43.01;101760.78;143724;638;47004;-71
2022/02/05 02:41:25;;;;;;;29.40;20.00;;;;;;;9.26;43.07;101753.78;143724;581;46008;-71
2022/02/05 02:43:52;;;;;;;33.25;22.05;;;;;;;9.28;42.93;101761.63;143721;620;47004;-71
2022/02/05 02:46:18;;;;;;;34.58;22.48;;;;;;;9.30;42.98;101756.94;143725;577;46012;-71
2022/02/05 02:48:47;;;;;;;27.75;22.05;;;;;;;9.29;43.16;101758.78;143722;583;47004;-71
2022/02/05 02:59:21;;;;;;;36.08;22.30;;;;;;;9.18;42.96;101762.59;143725;596;47004;-71
2022/02/05 03:01:48;;;;;;;31.02;20.75;;;;;;;9.11;43.15;101769.63;143724;739;46008;-71
2022/02/05 03:04:14;;;;;;;38.42;23.60;;;;;;;9.12;43.13;101776.66;143725;634;47004;-71
2022/02/05 03:06:40;;;;;;;30.55;20.77;;;;;;;9.16;43.07;101777.19;143726;594;46010;-71
2022/02/05 03:09:07;;;;;;;24.65;16.73;;;;;;;9.16;42.48;101786.06;143724;577;47006;-71
2022/02/05 03:11:33;;;;;;;18.45;13.90;;;;;;;9.17;42.34;101773.50;143725;650;46009;-71
2022/02/05 03:14:00;;;;;;;18.05;12.93;;;;;;;9.17;42.50;101774.34;143724;569;47004;-71
2022/02/05 03:16:29;;;;;;;20.42;14.68;;;;;;;9.17;42.44;101786.91;143726;591;46012;-71
2022/02/05 03:19:10;;;;;;;24.45;16.52;;;;;;;9.13;42.74;101778.34;143718;575;48006;-71
2022/02/05 03:21:37;;;;;;;24.52;16.23;;;;;;;9.12;42.85;101774.00;143725;659;46008;-71
2022/02/05 03:24:04;;;;;;;26.90;17.08;;;;;;;9.09;43.01;101769.78;143725;583;47004;-71
2022/02/05 03:26:33;;;;;;;21.95;16.75;;;;;;;9.07;43.27;101766.44;143722;754;47012;-71
2022/02/05 03:29:00;;;;;;;22.13;15.48;;;;;;;9.05;43.05;101767.59;143723;667;47006;-71
2022/02/05 03:31:26;;;;;;;23.75;16.00;;;;;;;9.08;42.83;101761.91;143725;566;46010;-71
2022/02/05 03:33:53;;;;;;;22.25;15.82;;;;;;;9.08;42.94;101752.03;143723;659;47006;-70
2022/02/05 03:36:19;;;;;;;20.58;15.23;;;;;;;9.08;42.74;101757.41;143724;601;47012;-71
2022/02/05 03:38:45;;;;;;;18.92;14.13;;;;;;;9.05;42.69;101754.19;143721;593;47006;-71
2022/02/05 03:41:11;;;;;;;16.15;12.48;;;;;;;9.01;42.94;101748.34;143726;623;46004;-70
2022/02/05 03:43:38;;;;;;;18.10;12.93;;;;;;;9.02;42.91;101741.13;143725;603;47004;-70
2022/02/05 03:46:04;;;;;;;21.65;13.55;;;;;;;9.00;43.04;101746.66;143723;566;46010;-70
2022/02/05 03:48:31;;;;;;;16.90;12.00;;;;;;;8.99;43.03;101746.81;143723;575;47004;-71
2022/02/05 03:50:57;;;;;;;19.02;12.63;;;;;;;8.86;43.42;101742.75;143723;603;47008;-71
2022/02/05 03:53:24;;;;;;;16.87;13.10;;;;;;;8.83;43.65;101740.38;143724;573;47004;-71
2022/02/05 03:55:50;;;;;;;17.05;12.98;;;;;;;8.85;43.59;101746.41;143725;627;46012;-71
2022/02/05 03:58:17;;;;;;;16.65;13.25;;;;;;;8.83;43.75;101747.59;143723;602;47004;-71
2022/02/05 04:00:43;;;;;;;20.88;16.58;;;;;;;8.85;43.35;101757.12;143725;610;46922;-71
2022/02/05 04:03:10;;;;;;;26.17;16.45;;;;;;;8.88;43.48;101756.00;143724;596;47005;-71
2022/02/05 04:05:36;;;;;;;23.02;17.30;;;;;;;8.88;43.62;101754.12;143724;573;47013;-71
2022/02/05 04:08:06;;;;;;;23.60;15.90;;;;;;;8.85;43.71;101753.62;143725;588;47004;-71
2022/02/05 04:10:42;;;;;;;18.62;14.38;;;;;;;8.85;43.71;101750.94;143728;594;46923;-71
2022/02/05 04:18:43;;;;;;;21.12;15.13;;;;;;;8.84;43.84;101752.78;143726;746;46011;-71
2022/02/05 04:21:10;;;;;;;22.37;13.88;;;;;;;8.84;43.77;101760.00;143730;679;46008;-71
2022/02/05 04:23:36;;;;;;;22.45;13.65;;;;;;;8.80;43.84;101760.31;143727;719;47006;-71
2022/02/05 04:26:03;;;;;;;20.50;14.65;;;;;;;8.78;44.23;101764.97;143726;586;46012;-71
2022/02/05 04:28:29;;;;;;;17.87;14.32;;;;;;;8.77;44.25;101759.78;143724;574;47004;-71
2022/02/05 04:30:56;;;;;;;19.23;14.30;;;;;;;8.75;43.89;101773.34;143723;596;47002;-71
2022/02/05 04:33:22;;;;;;;18.12;13.25;;;;;;;8.78;43.80;101774.88;143724;586;47004;-71
2022/02/05 04:35:48;;;;;;;18.58;13.57;;;;;;;8.83;44.24;101772.53;143727;589;47010;-71
2022/02/05 04:38:16;;;;;;;23.70;15.07;;;;;;;8.80;44.06;101772.87;143724;708;47006;-71
2022/02/05 04:40:54;;;;;;;23.60;18.55;;;;;;;8.79;44.35;101773.88;143725;574;47008;-71
2022/02/05 04:52:25;;;;;;;22.95;18.20;;;;;;;8.75;44.91;101769.84;143727;596;47002;-71
2022/02/05 04:57:57;;;;;;;24.23;18.77;;;;;;;8.76;44.79;101768.84;143729;587;46011;-71
2022/02/05 05:00:43;;;;;;;38.33;26.70;;;;;;;8.76;44.60;101779.53;143725;728;47006;-71
2022/02/05 05:03:34;;;;;;;29.48;20.58;;;;;;;8.72;44.61;101779.03;143729;584;46008;-71
2022/02/05 05:09:05;;;;;;;23.08;18.00;;;;;;;8.69;44.70;101795.41;143723;669;47012;-70
2022/02/05 05:11:42;;;;;;;27.25;17.92;;;;;;;8.67;44.97;101796.56;143725;585;47005;-71
2022/02/05 05:19:48;;;;;;;20.67;16.33;;;;;;;8.58;44.76;101814.41;143727;567;46013;-71
2022/02/05 05:22:15;;;;;;;25.02;17.15;;;;;;;8.56;44.65;101811.09;143728;576;46019;-71
2022/02/05 05:24:42;;;;;;;20.00;15.90;;;;;;;8.55;45.37;101826.28;143726;585;47006;-71
2022/02/05 05:27:08;;;;;;;24.80;15.23;;;;;;;8.52;44.35;101826.59;143726;588;47002;-71
2022/02/05 05:29:35;;;;;;;19.00;12.27;;;;;;;8.56;43.71;101825.31;143725;584;47008;-71
2022/02/05 05:32:01;;;;;;;12.80;10.85;;;;;;;8.59;43.56;101825.00;143725;567;47002;-71
2022/02/05 05:34:28;;;;;;;15.23;11.45;;;;;;;8.63;43.58;101829.03;143727;579;46007;-71
2022/02/05 05:36:56;;;;;;;17.45;12.35;;;;;;;8.67;43.39;101823.34;143726;600;47002;-71
2022/02/05 05:39:22;;;;;;;15.32;11.00;;;;;;;8.69;43.43;101827.56;143726;576;47010;-71
2022/02/05 05:41:49;;;;;;;13.70;9.25;;;;;;;8.63;43.69;101834.41;143728;574;46025;-71
2022/02/05 05:50:05;;;;;;;18.55;12.07;;;;;;;8.52;43.79;101840.00;143726;709;46019;-71
2022/02/05 05:52:32;;;;;;;18.60;13.98;;;;;;;8.50;43.95;101852.69;143727;587;47002;-70
2022/02/05 05:54:58;;;;;;;19.80;13.98;;;;;;;8.51;43.98;101850.87;143728;611;46006;-70
2022/02/05 05:57:25;;;;;;;19.73;13.80;;;;;;;8.55;44.11;101855.75;143727;576;47000;-69
2022/02/05 05:59:52;;;;;;;24.80;16.10;;;;;;;8.63;43.72;101857.63;143730;566;46008;-74
2022/02/05 06:02:20;;;;;;;23.52;16.27;;;;;;;8.67;43.80;101860.84;143726;606;47002;-70
2022/02/05 06:04:47;;;;;;;24.10;17.60;;;;;;;8.68;43.91;101871.41;143731;587;45925;-70
2022/02/05 06:07:13;;;;;;;22.33;13.82;;;;;;;8.76;43.91;101875.97;143730;598;47000;-71
2022/02/05 06:09:43;;;;;;;16.58;13.32;;;;;;;8.75;44.08;101879.66;143724;599;47008;-72
2022/02/05 06:12:11;;;;;;;20.33;14.32;;;;;;;8.74;43.86;101884.16;143722;695;47004;-71
2022/02/05 06:14:39;;;;;;;24.90;14.10;;;;;;;8.77;43.85;101891.88;143725;566;47924;-71
2022/02/05 06:17:09;;;;;;;15.15;12.07;;;;;;;8.78;43.69;101888.19;143726;574;47002;-70
2022/02/05 06:19:37;;;;;;;19.23;13.05;;;;;;;8.84;43.63;101894.75;143725;579;47011;-71
2022/02/05 06:22:04;;;;;;;18.12;12.70;;;;;;;8.86;43.59;101892.78;143724;678;47002;-71
2022/02/05 06:24:30;;;;;;;19.23;13.75;;;;;;;8.90;43.51;101893.31;143725;567;46007;-70
2022/02/05 06:26:57;;;;;;;17.65;13.57;;;;;;;8.93;43.39;101888.47;143731;665;46002;-71
2022/02/05 06:29:23;;;;;;;18.37;13.73;;;;;;;8.98;43.34;101892.53;143725;650;47008;-71
2022/02/05 06:31:50;;;;;;;20.73;12.82;;;;;;;8.97;43.61;101896.19;143724;652;47002;-71
2022/02/05 06:34:16;;;;;;;18.35;13.32;;;;;;;8.99;43.49;101896.88;143727;638;46006;-71
2022/02/05 06:36:42;;;;;;;20.48;14.40;;;;;;;9.04;43.49;101891.88;143725;608;47002;-70
2022/02/05 06:39:08;;;;;;;19.30;14.30;;;;;;;9.08;43.54;101888.72;143727;579;46008;-71
2022/02/05 06:41:35;;;;;;;19.95;14.52;;;;;;;9.13;43.14;101893.59;143725;576;47005;-70
2022/02/05 06:44:01;;;;;;;18.65;14.07;;;;;;;9.18;43.08;101895.78;143727;677;46006;-70
2022/02/05 06:46:28;;;;;;;18.90;14.40;;;;;;;9.19;43.09;101892.94;143727;648;47002;-71
2022/02/05 06:48:54;;;;;;;18.77;14.43;;;;;;;9.24;42.98;101896.00;143727;587;46010;-71
2022/02/05 06:51:21;;;;;;;19.65;16.98;;;;;;;9.35;42.43;101894.87;143724;713;47004;-70
2022/02/05 06:53:47;;;;;;;20.75;17.17;;;;;;;9.42;42.53;101900.41;143725;592;47006;-71
2022/02/05 06:56:13;;;;;;;23.98;17.35;;;;;;;9.49;42.59;101897.94;143727;682;47002;-71
2022/02/05 06:58:40;;;;;;;20.10;16.42;;;;;;;9.56;42.63;101897.13;143724;698;47010;-71
2022/02/05 07:01:06;;;;;;;30.35;20.48;;;;;;;9.58;42.30;101888.94;143725;666;47004;-71
2022/02/05 07:03:33;;;;;;;29.80;20.30;;;;;;;9.67;42.05;101897.84;143727;600;46006;-72
2022/02/05 07:05:59;;;;;;;36.90;20.88;;;;;;;9.71;41.99;101891.97;143728;603;47004;-71
2022/02/05 07:08:26;;;;;;;31.45;19.80;;;;;;;9.79;42.00;101909.09;143724;607;47010;-71
2022/02/05 07:10:52;;;;;;;23.83;17.77;;;;;;;9.84;41.17;101885.28;143725;572;47002;-71
2022/02/05 07:13:22;;;;;;;26.75;18.08;;;;;;;9.96;41.29;101889.34;143728;588;46006;-71
2022/02/05 07:16:05;;;;;;;23.20;17.00;;;;;;;10.01;41.41;101895.03;143727;566;47004;-71
2022/02/05 07:18:54;;;;;;;24.73;15.30;;;;;;;10.11;40.65;101881.47;143727;675;46024;-72
2022/02/05 07:29:37;;;;;;;22.70;17.15;;;;;;;10.49;40.04;101891.75;143724;572;47004;-72
2022/02/05 07:32:07;;;;;;;19.95;15.63;;;;;;;10.59;39.96;101884.34;143728;604;46009;-72
2022/02/05 07:34:39;;;;;;;20.88;14.55;;;;;;;10.68;39.53;101889.72;143726;567;46006;-73
2022/02/05 07:37:06;;;;;;;26.20;17.08;;;;;;;10.76;40.03;101889.69;143727;607;47004;-74
2022/02/05 07:39:38;;;;;;;24.95;17.98;;;;;;;10.89;40.53;101884.63;143725;633;47010;-72
2022/02/05 07:42:05;;;;;;;22.42;17.30;;;;;;;10.96;40.62;101887.44;143723;596;47004;-73
2022/02/05 07:44:31;;;;;;;23.70;14.80;;;;;;;11.06;39.19;101874.66;143726;599;46006;-72
2022/02/05 07:47:00;;;;;;;20.55;14.30;;;;;;;11.11;39.38;101874.13;143727;596;47000;-73
2022/02/05 07:49:30;;;;;;;19.90;14.70;;;;;;;11.22;39.27;101875.59;143725;642;46923;-72
2022/02/05 07:51:56;;;;;;;19.12;14.07;;;;;;;11.30;39.02;101863.97;143727;572;46008;-70
2022/02/05 07:54:23;;;;;;;17.40;13.77;;;;;;;11.41;38.13;101877.03;143725;780;47006;-73
2022/02/05 07:56:50;;;;;;;18.30;13.62;;;;;;;11.49;38.22;101878.84;143726;584;47000;-71
2022/02/05 07:59:18;;;;;;;18.80;13.05;;;;;;;11.64;37.44;101870.87;143724;579;46923;-71
2022/02/05 08:01:45;;;;;;;19.92;13.65;;;;;;;11.75;37.15;101875.84;143724;587;47002;-71
2022/02/05 08:04:12;;;;;;;18.85;14.25;;;;;;;11.82;37.88;101867.91;143728;608;46006;-71
2022/02/05 08:06:39;;;;;;;25.50;16.35;;;;;;;11.93;37.64;101872.88;143724;591;47002;-71
2022/02/05 08:09:25;;;;;;;22.70;14.68;;;;;;;12.01;37.51;101869.31;143727;608;46018;-71
2022/02/05 08:12:00;;;;;;;16.87;14.32;;;;;;;12.13;37.53;101869.72;143724;572;47002;-71
2022/02/05 08:14:28;;;;;;;16.77;14.45;;;;;;;12.25;36.88;101870.13;143726;602;46006;-71
2022/02/05 08:17:02;;;;;;;19.48;14.00;;;;;;;12.34;36.62;101871.72;143726;611;47004;-71
2022/02/05 08:19:29;;;;;;;23.63;13.80;;;;;;;12.47;36.06;101872.97;143724;584;47011;-72
2022/02/05 08:21:55;;;;;;;22.00;13.45;;;;;;;12.58;36.17;101880.63;143724;625;47004;-72
2022/02/05 08:24:21;;;;;;;20.98;14.35;;;;;;;12.70;35.99;101868.34;143726;574;46007;-71
2022/02/05 08:26:48;;;;;;;19.17;13.05;;;;;;;12.81;35.64;101866.22;143727;580;47004;-71
2022/02/05 08:29:16;;;;;;;16.55;12.02;;;;;;;12.96;35.74;101867.09;143726;607;47008;-71
2022/02/05 08:31:43;;;;;;;16.45;13.40;;;;;;;13.13;35.07;101867.72;143726;608;47002;-71
2022/02/05 08:34:10;;;;;;;15.98;13.45;;;;;;;13.27;34.56;101874.13;143729;597;46006;-71
2022/02/05 08:36:45;;;;;;;27.73;20.55;;;;;;;13.43;34.89;101873.09;143726;613;47004;-71
2022/02/05 08:39:13;;;;;;;52.72;31.77;;;;;;;13.55;34.75;101867.22;143726;588;46025;-71
2022/02/05 08:41:40;;;;;;;35.80;23.87;;;;;;;13.65;34.91;101873.13;143725;567;47002;-71
2022/02/05 08:44:07;;;;;;;27.08;17.52;;;;;;;13.78;34.12;101867.06;143726;575;46006;-70
2022/02/05 08:46:37;;;;;;;17.80;14.40;;;;;;;13.87;33.91;101863.19;143727;591;47000;-71
2022/02/05 08:49:04;;;;;;;26.75;19.15;;;;;;;13.99;33.96;101866.22;143725;605;47010;-71
2022/02/05 08:51:32;;;;;;;31.08;21.25;;;;;;;14.11;34.31;101863.84;143724;572;47004;-71
2022/02/05 08:53:59;;;;;;;26.40;18.75;;;;;;;14.22;33.64;101863.31;143727;592;46006;-71
2022/02/05 08:56:27;;;;;;;22.75;16.95;;;;;;;14.33;33.05;101856.53;143724;619;47002;-71
2022/02/05 08:58:55;;;;;;;27.65;17.02;;;;;;;14.47;32.72;101864.78;143727;567;46010;-69
2022/02/05 09:01:42;;;;;;;23.62;16.58;;;;;;;14.59;33.03;101852.38;143723;669;47004;-71
2022/02/05 09:04:23;;;;;;;25.60;17.92;;;;;;;14.75;32.68;101851.25;143726;574;46006;-71
2022/02/05 09:06:50;;;;;;;25.62;16.30;;;;;;;14.85;31.80;101856.28;143725;660;47004;-71
2022/02/05 09:09:32;;;;;;;20.55;13.52;;;;;;;14.95;31.55;101856.78;143725;612;46922;-71
2022/02/05 09:12:17;;;;;;;24.67;13.30;;;;;;;15.10;31.42;101853.09;143725;644;47004;-71
2022/02/05 09:14:47;;;;;;;17.37;13.02;;;;;;;15.24;31.44;101857.53;143726;644;46006;-71
2022/02/05 09:17:13;;;;;;;16.83;12.82;;;;;;;15.41;30.89;101855.34;143726;605;47004;-70
2022/02/05 09:19:41;;;;;;;22.75;14.77;;;;;;;15.53;30.35;101849.31;143726;574;46010;-77
2022/02/05 09:22:08;;;;;;;22.62;14.45;;;;;;;15.67;30.07;101834.75;143725;572;47002;-77
2022/02/05 09:24:35;;;;;;;20.12;15.15;;;;;;;15.89;30.71;101848.19;143726;783;46007;-78
2022/02/05 09:27:05;;;;;;;23.20;15.07;;;;;;;16.05;29.76;101844.25;143725;567;47002;-77
2022/02/05 09:29:38;;;;;;;23.35;15.73;;;;;;;16.28;30.15;101840.25;143726;579;46010;-75
2022/02/05 09:32:05;;;;;;;21.15;14.93;;;;;;;16.56;29.21;101840.03;143724;584;47004;-77
2022/02/05 09:34:32;;;;;;;17.67;12.80;;;;;;;17.14;27.91;101846.59;143728;587;46006;-78
2022/02/05 09:36:59;;;;;;;17.95;13.45;;;;;;;19.03;25.96;101843.28;143726;618;47000;-77
2022/02/05 09:39:26;;;;;;;17.00;11.73;;;;;;;25.41;18.75;101843.78;143727;610;46922;-77
2022/02/05 09:41:52;;;;;;;14.40;10.90;;;;;;;30.31;14.47;101842.97;143723;579;47004;-77
2022/02/05 09:44:19;;;;;;;19.52;11.07;;;;;;;33.34;11.28;101848.81;143725;585;46006;-77
2022/02/05 09:46:45;;;;;;;18.75;12.15;;;;;;;35.16;10.20;101829.31;143722;573;47002;-75
2022/02/05 09:49:14;;;;;;;20.55;13.30;;;;;;;36.44;8.89;101830.63;143723;582;47008;-74
2022/02/05 09:51:46;;;;;;;22.92;12.73;;;;;;;37.24;8.27;101828.28;143721;576;47002;-75
2022/02/05 09:54:12;;;;;;;12.55;10.38;;;;;;;38.27;7.84;101813.78;143725;591;46006;-74
2022/02/05 09:56:39;;;;;;;8.70;6.95;;;;;;;39.12;6.90;101804.91;143726;567;47000;-75
2022/02/05 09:59:06;;;;;;;11.55;8.13;;;;;;;39.83;6.75;101800.25;143725;591;46010;-76
2022/02/05 10:01:36;;;;;;;12.25;7.87;;;;;;;40.76;6.55;101797.25;143722;680;47004;-76
2022/02/05 10:04:07;;;;;;;10.05;8.15;;;;;;;41.79;5.83;101793.19;143725;572;46924;-76
2022/02/05 10:06:39;;;;;;;9.52;7.90;;;;;;;42.50;5.15;101782.03;143724;566;47000;-77
2022/02/05 10:09:13;;;;;;;10.02;8.52;;;;;;;43.09;5.14;101779.03;143727;593;46008;-77
2022/02/05 10:11:56;;;;;;;14.25;8.35;;;;;;;43.63;5.19;101767.06;143722;740;47004;-76
2022/02/05 10:14:28;;;;;;;9.43;7.77;;;;;;;44.18;4.79;101765.81;143725;595;46006;-78
2022/02/05 10:16:58;;;;;;;7.53;6.72;;;;;;;44.62;4.78;101762.88;143726;577;47004;-78
2022/02/05 10:19:43;;;;;;;9.90;7.95;;;;;;;45.01;4.46;101750.53;143725;623;46027;-77
2022/02/05 10:22:10;;;;;;;8.27;7.40;;;;;;;45.39;3.54;101753.53;143723;634;47004;-77
2022/02/05 10:25:01;;;;;;;11.05;8.20;;;;;;;45.71;4.50;101752.50;143726;611;46007;-78
2022/02/05 10:27:32;;;;;;;7.97;7.18;;;;;;;45.67;4.08;101736.69;143726;596;47000;-79
2022/02/05 10:30:11;;;;;;;10.70;7.15;;;;;;;46.16;3.76;101739.47;143723;625;47008;-77
2022/02/05 10:32:44;;;;;;;10.13;7.50;;;;;;;46.36;3.13;101733.94;143722;600;47002;-67
2022/02/05 10:43:49;;;;;;;8.88;7.05;;;;;;;46.81;3.44;101701.72;143725;598;46008;-68
2022/02/05 10:46:15;;;;;;;9.95;7.10;;;;;;;46.49;3.36;101699.34;143725;590;46007;-68
2022/02/05 10:48:42;;;;;;;9.63;7.47;;;;;;;43.21;5.36;101684.59;143723;637;47002;-68
2022/02/05 10:51:09;;;;;;;11.32;8.07;;;;;;;39.59;6.81;101680.50;143725;603;46010;-67
2022/02/05 10:53:42;;;;;;;14.25;9.18;;;;;;;38.28;7.66;101679.94;143725;610;47002;-68
2022/02/05 10:56:25;;;;;;;9.93;8.48;;;;;;;41.00;6.96;101680.44;143724;633;46006;-67
2022/02/05 10:59:17;;;;;;;10.90;8.77;;;;;;;42.49;6.59;101675.91;143723;593;47002;-67
2022/02/05 11:07:20;;;;;;;12.00;10.25;;;;;;;42.33;6.21;101664.91;143723;589;47002;-67
2022/02/05 11:09:49;;;;;;;11.10;9.15;;;;;;;41.59;6.59;101665.69;143726;573;47000;-68
2022/02/05 11:18:30;;;;;;;12.55;9.25;;;;;;;34.63;10.37;101656.69;143725;597;46002;-67
2022/02/05 11:20:57;;;;;;;10.00;8.38;;;;;;;32.38;12.91;101645.62;143726;595;46006;-67
2022/02/05 11:23:27;;;;;;;11.00;9.30;;;;;;;30.76;14.82;101644.66;143724;569;47009;-68
2022/02/05 11:25:55;;;;;;;10.98;9.52;;;;;;;29.48;15.59;101633.97;143722;592;47004;-67
2022/02/05 11:29:02;;;;;;;10.32;8.43;;;;;;;28.37;16.77;101644.59;143725;680;46019;-67
2022/02/05 11:31:38;;;;;;;9.70;8.70;;;;;;;27.33;18.09;101640.19;143723;608;47004;-66
2022/02/05 11:34:38;;;;;;;10.95;8.25;;;;;;;26.32;18.36;101641.41;143725;648;46017;-67
2022/02/05 11:37:10;;;;;;;10.98;8.43;;;;;;;25.39;19.54;101641.66;143723;575;47004;-67
2022/02/05 11:39:50;;;;;;;13.25;8.57;;;;;;;24.51;20.42;101633.31;143724;572;47006;-67
2022/02/05 11:42:39;;;;;;;10.30;8.40;;;;;;;24.01;21.35;101635.59;143728;572;47002;-67
2022/02/05 11:45:41;;;;;;;11.98;7.60;;;;;;;23.45;21.89;101634.13;143723;567;47009;-67
2022/02/05 11:48:44;;;;;;;8.98;7.22;;;;;;;22.97;23.03;101643.03;143724;584;47004;-68
2022/02/05 11:51:40;;;;;;;15.23;9.38;;;;;;;22.55;23.29;101635.47;143724;586;46008;-66
2022/02/05 11:54:10;;;;;;;9.43;7.90;;;;;;;22.26;24.03;101635.69;143724;567;47004;-68
2022/02/05 11:57:03;;;;;;;8.88;7.95;;;;;;;22.01;23.77;101628.78;143723;588;47012;-66
2022/02/05 12:00:19;;;;;;;10.95;8.73;;;;;;;21.67;24.46;101617.13;143722;957;47006;-68
2022/02/05 12:03:02;;;;;;;9.88;8.88;;;;;;;21.48;25.76;101618.19;143725;583;46008;-65
2022/02/05 12:05:36;;;;;;;9.13;7.60;;;;;;;21.44;24.48;101621.69;143726;574;47006;-66
2022/02/05 12:08:29;;;;;;;9.57;7.18;;;;;;;21.22;23.89;101619.69;143723;980;47012;-67
2022/02/05 12:10:57;;;;;;;10.23;8.13;;;;;;;21.14;24.24;101626.41;143721;572;47004;-68
2022/02/05 12:13:38;;;;;;;10.25;8.02;;;;;;;21.09;24.87;101612.66;143725;984;46024;-68
2022/02/05 12:16:19;;;;;;;13.82;9.10;;;;;;;21.03;25.03;101614.47;143724;985;47002;-68
2022/02/05 12:19:11;;;;;;;8.85;7.25;;;;;;;20.98;24.28;101611.66;143723;567;47012;-68
2022/02/05 12:22:03;;;;;;;11.85;8.20;;;;;;;20.88;25.34;101603.28;143722;709;47006;-68
2022/02/05 12:25:16;;;;;;;12.00;7.90;;;;;;;20.77;25.49;101604.19;143725;947;46008;-69
2022/02/05 12:27:43;;;;;;;12.55;9.48;;;;;;;20.67;26.30;101605.63;143723;606;47004;-68
2022/02/05 12:30:46;;;;;;;14.73;9.35;;;;;;;20.56;25.79;101604.59;143723;581;47012;-70
2022/02/05 12:33:13;;;;;;;12.52;8.82;;;;;;;20.53;25.90;101607.00;143722;572;47006;-69
2022/02/05 12:35:51;;;;;;;10.00;8.07;;;;;;;20.48;26.04;101606.87;143721;973;47008;-69
2022/02/05 12:38:18;;;;;;;10.45;8.40;;;;;;;20.41;26.33;101601.56;143724;667;47004;-81
2022/02/05 12:40:47;;;;;;;11.93;9.43;;;;;;;20.34;27.07;101607.19;143722;582;47012;-74
2022/02/05 12:43:14;;;;;;;13.05;10.02;;;;;;;20.27;27.29;101596.41;143723;980;47006;-76
2022/02/05 12:46:06;;;;;;;11.50;9.98;;;;;;;20.18;27.85;101605.22;143725;568;46024;-75
2022/02/05 12:48:33;;;;;;;13.73;9.90;;;;;;;20.17;27.46;101596.22;143722;588;47004;-78
2022/02/05 12:51:00;;;;;;;14.18;10.50;;;;;;;20.12;27.54;101588.72;143721;589;47008;-77
2022/02/05 12:53:31;;;;;;;13.68;10.10;;;;;;;20.07;27.49;101587.81;143723;589;47004;-75
2022/02/05 12:56:19;;;;;;;13.20;9.88;;;;;;;19.99;28.17;101576.22;143724;645;46922;-76
2022/02/05 12:59:03;;;;;;;12.40;9.02;;;;;;;19.86;28.16;101587.34;143724;674;47004;-70
2022/02/05 13:01:32;;;;;;;12.27;9.30;;;;;;;19.77;28.47;101583.34;143723;593;47013;-73
2022/02/05 13:04:18;;;;;;;9.75;8.68;;;;;;;19.69;28.95;101595.44;143724;584;47004;-71
2022/02/05 13:06:45;;;;;;;12.37;9.07;;;;;;;19.60;28.93;101588.69;143726;591;46009;-70
2022/02/05 13:09:22;;;;;;;10.23;8.85;;;;;;;19.45;29.54;101581.81;143723;616;47004;-69
2022/02/05 13:12:05;;;;;;;11.55;8.52;;;;;;;19.39;29.25;101574.62;143722;578;47012;-70
2022/02/05 13:15:02;;;;;;;14.68;9.10;;;;;;;19.28;29.89;101578.12;143721;634;47007;-70
2022/02/05 13:26:56;;;;;;;11.98;9.80;;;;;;;19.16;30.50;101569.97;143721;583;47006;-76
2022/02/05 13:29:40;;;;;;;13.25;11.05;;;;;;;19.09;30.92;101565.47;143724;573;46009;-76
2022/02/05 13:35:02;;;;;;;15.13;10.20;;;;;;;18.97;30.65;101563.78;143725;638;46010;-74
2022/02/05 13:37:36;;;;;;;15.52;11.60;;;;;;;18.92;30.52;101550.84;143722;581;47006;-76
2022/02/05 13:40:04;;;;;;;15.50;11.35;;;;;;;18.87;30.99;101557.00;143722;618;47008;-77
2022/02/05 13:42:36;;;;;;;11.52;8.30;;;;;;;18.72;31.66;101557.44;143724;626;47002;-78
2022/02/05 13:45:13;;;;;;;10.57;9.55;;;;;;;18.62;31.88;101559.91;143724;619;47012;-78
2022/02/05 13:48:05;;;;;;;11.27;9.43;;;;;;;18.53;32.08;101562.13;143722;603;47004;-77
2022/02/05 13:50:32;;;;;;;12.00;8.48;;;;;;;18.37;32.20;101563.59;143725;600;46008;-76
2022/02/05 13:53:04;;;;;;;11.45;8.25;;;;;;;18.25;32.75;101566.25;143724;595;47006;-77
2022/02/05 13:55:44;;;;;;;12.13;8.35;;;;;;;18.23;33.22;101567.56;143723;605;47010;-76
2022/02/05 13:58:15;;;;;;;12.00;8.05;;;;;;;18.14;32.39;101567.84;143722;623;47006;-76
2022/02/05 14:00:44;;;;;;;11.82;7.20;;;;;;;18.13;32.43;101578.97;143722;579;46923;-77
2022/02/05 14:03:12;;;;;;;11.35;7.97;;;;;;;18.06;31.75;101578.22;143722;574;47004;-75
2022/02/05 14:05:59;;;;;;;9.05;7.55;;;;;;;17.94;31.75;101575.38;143726;636;46924;-76
2022/02/05 14:08:34;;;;;;;11.50;8.38;;;;;;;17.88;32.11;101577.97;143722;592;47004;-76
2022/02/05 14:11:02;;;;;;;;;;;;;;;17.85;32.08;101578.41;143730;984;46025;-75
2022/02/05 14:13:29;;;;;;;10.65;8.15;;;;;;;17.85;32.21;101585.72;143730;573;47002;-76